Time;durP1;ratioP1;P1;durP2;ratioP2;P2;SDS_P1;SDS_P2;PMS_P1;PMS_P2;Temp;Humidity;BMP_temperature;BMP_pressure;BME280_temperature;BME280_humidity;BME280_pressure;Samples;Min_cycle;Max_cycle;Signal;HPM_P1;HPM_P2
2022/09/09 08:30:15;;;;;;;4.07;0.90;;;20.60;92.80;;;;;;6151547;23;20193;-74
2022/09/09 08:32:42;;;;;;;4.82;0.77;;;20.80;92.90;;;;;;6224284;23;20004;-72
2022/09/09 08:35:09;;;;;;;3.95;0.73;;;20.90;92.30;;;;;;6197773;23;20004;-75
2022/09/09 08:37:40;;;;;;;3.05;0.50;;;21.00;92.10;;;;;;6198703;23;20071;-74
2022/09/09 08:40:17;;;;;;;2.33;0.57;;;21.10;91.90;;;;;;6197734;23;20008;-74
2022/09/09 08:42:49;;;;;;;3.00;0.60;;;21.40;91.20;;;;;;6224921;23;19997;-73
2022/09/09 08:45:28;;;;;;;3.42;0.60;;;21.40;91.30;;;;;;6197316;23;20312;-73
2022/09/09 08:48:27;;;;;;;3.42;0.80;;;21.70;91.30;;;;;;6197592;23;20000;-72
2022/09/09 08:51:01;;;;;;;2.03;0.63;;;21.50;91.60;;;;;;6198801;23;20004;-74
2022/09/09 08:53:38;;;;;;;4.95;0.70;;;21.30;91.20;;;;;;6172206;23;20054;-74
2022/09/09 08:56:16;;;;;;;3.05;0.60;;;21.40;90.40;;;;;;6197605;23;20007;-75
2022/09/09 08:58:49;;;;;;;4.88;0.98;;;21.20;90.60;;;;;;6197594;23;20013;-75
2022/09/09 09:01:44;;;;;;;4.35;0.77;;;21.30;90.50;;;;;;6197212;23;20020;-75
2022/09/09 09:04:36;;;;;;;3.73;1.07;;;21.60;90.30;;;;;;6196523;23;20004;-75
2022/09/09 09:07:56;;;;;;;3.17;0.52;;;21.70;87.90;;;;;;6197541;23;20007;-74
2022/09/09 09:10:43;;;;;;;3.03;0.55;;;22.00;85.60;;;;;;6150800;23;20032;-74
2022/09/09 09:13:20;;;;;;;3.33;0.60;;;22.00;83.50;;;;;;6196520;23;20011;-73
2022/09/09 09:15:54;;;;;;;5.82;0.60;;;22.00;83.90;;;;;;6197363;23;20008;-73
2022/09/09 09:18:20;;;;;;;3.20;0.50;;;22.00;83.20;;;;;;6223317;23;20028;-71
2022/09/09 09:21:12;;;;;;;3.53;0.57;;;22.00;82.90;;;;;;6196936;23;20001;-72
2022/09/09 09:23:57;;;;;;;2.53;0.70;;;22.10;82.90;;;;;;6196892;23;20239;-72
2022/09/09 09:26:46;;;;;;;4.13;0.52;;;22.00;82.50;;;;;;6170484;23;20287;-72
2022/09/09 09:29:15;;;;;;;2.80;0.50;;;22.00;83.20;;;;;;6171342;23;20102;-73
2022/09/09 09:32:17;;;;;;;4.43;0.55;;;21.70;87.50;;;;;;6196440;23;20063;-71
2022/09/09 09:34:55;;;;;;;3.65;0.50;;;21.30;90.90;;;;;;6133394;23;20018;-71
2022/09/09 09:37:49;;;;;;;2.92;0.60;;;20.90;90.90;;;;;;6196529;23;20047;-72
2022/09/09 09:40:22;;;;;;;3.42;0.40;;;20.40;91.80;;;;;;6196074;23;20019;-71
2022/09/09 09:43:07;;;;;;;2.10;0.30;;;19.20;94.60;;;;;;6196831;23;20001;-72
2022/09/09 09:45:46;;;;;;;2.45;0.30;;;18.10;97.20;;;;;;6196833;23;20011;-72
2022/09/09 09:48:20;;;;;;;1.45;0.22;;;17.80;96.60;;;;;;6192045;23;20000;-71
2022/09/09 09:50:57;;;;;;;2.08;0.40;;;17.90;95.90;;;;;;6196415;23;20000;-72
2022/09/09 09:53:27;;;;;;;1.48;0.45;;;18.00;95.60;;;;;;6194479;23;20198;-73
2022/09/09 09:56:28;;;;;;;1.63;0.28;;;18.40;95.80;;;;;;6198079;23;20067;-71
2022/09/09 09:58:55;;;;;;;1.15;0.32;;;18.80;94.50;;;;;;6191956;23;20241;-72
2022/09/09 10:01:38;;;;;;;1.83;0.40;;;19.10;93.80;;;;;;6195296;23;20168;-73
2022/09/09 10:04:21;;;;;;;2.97;0.35;;;19.60;93.50;;;;;;6195676;23;20058;-75
2022/09/09 10:06:48;;;;;;;2.15;0.30;;;19.90;91.70;;;;;;6197909;23;20008;-75
2022/09/09 10:09:25;;;;;;;2.13;0.50;;;20.10;92.40;;;;;;6197525;23;19999;-75
2022/09/09 10:12:21;;;;;;;3.67;0.40;;;20.40;91.20;;;;;;6224304;23;20171;-75
2022/09/09 10:15:14;;;;;;;2.90;0.70;;;20.60;90.20;;;;;;6224624;23;20063;-77
2022/09/09 10:18:02;;;;;;;4.03;0.90;;;20.90;90.00;;;;;;6224238;23;20163;-75
2022/09/09 10:21:00;;;;;;;3.22;0.40;;;21.10;89.40;;;;;;6224332;23;20125;-75
2022/09/09 10:23:49;;;;;;;3.28;0.80;;;21.10;89.70;;;;;;6223661;23;20016;-77
2022/09/09 10:26:52;;;;;;;4.20;0.60;;;21.20;90.60;;;;;;6223715;23;20013;-74
2022/09/09 10:29:44;;;;;;;3.08;0.50;;;21.40;90.60;;;;;;6197156;23;20356;-74
2022/09/09 10:32:41;;;;;;;3.58;0.68;;;21.50;90.30;;;;;;6224458;23;20072;-74
2022/09/09 10:35:10;;;;;;;2.53;0.80;;;21.60;90.20;;;;;;6223926;23;20020;-74
2022/09/09 10:37:55;;;;;;;2.70;0.65;;;21.70;90.30;;;;;;6224449;23;20000;-73
2022/09/09 10:40:42;;;;;;;3.03;0.50;;;22.10;88.40;;;;;;6196703;23;20052;-73
2022/09/09 10:43:14;;;;;;;3.35;0.60;;;22.50;87.70;;;;;;6197696;23;20072;-73
2022/09/09 10:45:49;;;;;;;2.35;0.50;;;22.70;87.10;;;;;;6224438;23;20000;-73
2022/09/09 10:48:41;;;;;;;2.40;0.40;;;23.00;84.60;;;;;;6223897;23;20009;-77
2022/09/09 10:51:23;;;;;;;3.85;0.57;;;23.20;85.00;;;;;;6196658;23;20019;-73
2022/09/09 10:54:11;;;;;;;2.67;0.50;;;23.70;83.50;;;;;;6197182;23;20013;-72
2022/09/09 10:56:39;;;;;;;2.25;0.40;;;23.70;83.90;;;;;;6197542;23;20003;-72
2022/09/09 10:59:17;;;;;;;4.68;0.85;;;23.40;83.70;;;;;;6196051;23;20064;-73
2022/09/09 11:02:10;;;;;;;3.42;0.40;;;23.50;82.70;;;;;;6223719;23;20007;-72
2022/09/09 11:04:50;;;;;;;5.03;0.68;;;23.40;83.40;;;;;;6225216;23;20008;-74
2022/09/09 11:07:32;;;;;;;1.95;0.60;;;23.90;82.70;;;;;;6225819;23;20016;-73
2022/09/09 11:10:06;;;;;;;4.78;0.60;;;24.30;82.10;;;;;;6225797;23;20024;-73
2022/09/09 11:12:37;;;;;;;3.95;0.60;;;25.50;80.10;;;;;;6198429;23;20012;-73
2022/09/09 11:15:14;;;;;;;2.17;0.57;;;26.00;77.50;;;;;;6225457;23;20294;-73
2022/09/09 11:17:58;;;;;;;2.15;0.65;;;25.70;76.60;;;;;;6225793;23;20286;-73
2022/09/09 11:20:25;;;;;;;5.05;0.60;;;25.50;77.50;;;;;;6225804;23;20032;-74
2022/09/09 11:23:03;;;;;;;2.03;0.60;;;25.40;77.90;;;;;;6226081;23;20005;-72
2022/09/09 11:25:47;;;;;;;1.52;0.32;;;25.30;78.00;;;;;;6224282;23;20232;-73
2022/09/09 11:28:24;;;;;;;3.42;0.50;;;24.90;71.80;;;;;;6224387;23;20024;-73
2022/09/09 11:31:15;;;;;;;1.35;0.28;;;24.20;71.60;;;;;;6198683;23;20013;-74
2022/09/09 11:34:02;;;;;;;1.73;0.30;;;23.40;71.60;;;;;;6199756;23;20198;-72
2022/09/09 11:36:49;;;;;;;1.63;0.30;;;23.10;71.80;;;;;;6225245;23;20007;-74
2022/09/09 11:39:39;;;;;;;6.53;0.40;;;22.60;74.00;;;;;;6225856;23;20035;-75
2022/09/09 11:42:13;;;;;;;1.88;0.30;;;22.70;74.80;;;;;;6226233;23;20008;-73
2022/09/09 11:44:41;;;;;;;3.92;0.30;;;22.60;75.80;;;;;;6199001;23;20036;-71
2022/09/09 11:47:30;;;;;;;4.15;0.40;;;22.30;77.00;;;;;;6225264;23;20020;-72
2022/09/09 11:50:14;;;;;;;3.00;0.22;;;21.90;77.90;;;;;;6225556;23;20016;-72
2022/09/09 11:52:45;;;;;;;1.88;0.28;;;21.80;78.50;;;;;;6225301;23;20344;-71
2022/09/09 11:55:29;;;;;;;1.77;0.20;;;21.70;78.80;;;;;;6225363;23;20278;-72
2022/09/09 11:58:10;;;;;;;1.98;0.30;;;21.90;78.70;;;;;;6225326;23;20001;-73
2022/09/09 12:00:38;;;;;;;3.22;0.43;;;21.90;78.70;;;;;;6224410;23;20005;-71
2022/09/09 12:03:35;;;;;;;2.15;0.20;;;22.30;78.00;;;;;;6199367;23;20166;-76
2022/09/09 12:06:19;;;;;;;0.70;0.10;;;22.40;78.00;;;;;;6225322;23;20336;-71
2022/09/09 12:08:52;;;;;;;1.55;0.30;;;23.40;74.90;;;;;;6223698;23;20016;-72
2022/09/09 12:11:26;;;;;;;1.13;0.10;;;24.50;71.80;;;;;;6223911;23;20008;-70
2022/09/09 12:13:54;;;;;;;1.02;0.20;;;25.90;68.80;;;;;;6223059;23;20009;-71
2022/09/09 12:16:33;;;;;;;1.05;0.10;;;26.90;66.30;;;;;;6223278;23;19985;-72
2022/09/09 12:19:09;;;;;;;1.80;0.30;;;26.70;65.10;;;;;;6223490;23;20020;-72
2022/09/09 12:21:43;;;;;;;2.17;0.10;;;25.90;65.70;;;;;;6223167;23;20009;-72
2022/09/09 12:24:36;;;;;;;2.83;0.10;;;25.10;67.40;;;;;;6196660;23;20005;-73
2022/09/09 12:27:24;;;;;;;1.85;0.20;;;25.50;67.20;;;;;;6223348;23;20272;-74
2022/09/09 12:30:01;;;;;;;0.82;0.10;;;27.00;64.20;;;;;;6196010;23;20091;-74
2022/09/09 12:32:28;;;;;;;1.23;0.20;;;28.40;62.00;;;;;;6222462;23;20168;-72
2022/09/09 12:35:11;;;;;;;1.65;0.20;;;29.40;59.80;;;;;;6223229;23;20111;-72
2022/09/09 12:37:39;;;;;;;1.75;0.28;;;30.80;58.10;;;;;;6222744;23;20032;-72
2022/09/09 12:40:23;;;;;;;1.10;0.10;;;30.70;56.50;;;;;;6223193;23;20282;-72
2022/09/09 12:42:50;;;;;;;1.20;0.20;;;30.80;55.90;;;;;;6222949;23;20016;-71
2022/09/09 12:45:40;;;;;;;2.88;0.63;;;31.60;55.10;;;;;;6223464;23;19991;-72
2022/09/09 12:48:07;;;;;;;2.92;0.32;;;32.70;53.90;;;;;;6223443;23;20001;-71
2022/09/09 12:50:37;;;;;;;1.27;0.20;;;31.80;52.20;;;;;;6222593;23;20290;-71
2022/09/09 12:53:29;;;;;;;2.00;0.20;;;29.60;55.50;;;;;;6223124;23;20016;-71
2022/09/09 12:56:17;;;;;;;1.60;0.20;;;27.90;58.30;;;;;;6218904;23;20008;-71
2022/09/09 12:58:47;;;;;;;1.58;0.10;;;26.30;61.00;;;;;;6223143;23;20023;-73
2022/09/09 13:01:25;;;;;;;1.15;0.22;;;26.00;62.60;;;;;;6196811;23;20009;-73
2022/09/09 13:03:51;;;;;;;1.52;0.20;;;25.70;63.30;;;;;;6222865;23;20229;-71
2022/09/09 13:06:28;;;;;;;2.33;0.30;;;26.40;62.80;;;;;;6223539;23;20001;-73
2022/09/09 13:08:59;;;;;;;2.07;0.40;;;27.30;61.90;;;;;;6223307;23;20015;-72
2022/09/09 13:11:51;;;;;;;2.58;0.30;;;28.50;59.40;;;;;;6222975;23;20001;-74
2022/09/09 13:14:28;;;;;;;2.33;0.38;;;27.90;59.70;;;;;;6196118;23;20012;-72
2022/09/09 13:17:00;;;;;;;2.13;0.30;;;26.70;61.30;;;;;;6223164;23;20000;-73
2022/09/09 13:19:29;;;;;;;1.25;0.30;;;26.80;62.40;;;;;;6222705;23;20375;-72
2022/09/09 13:21:55;;;;;;;1.85;0.30;;;26.80;61.30;;;;;;6223271;23;20214;-72
2022/09/09 13:24:42;;;;;;;1.95;0.30;;;27.10;61.20;;;;;;6222327;23;20068;-72
2022/09/09 13:27:28;;;;;;;2.65;0.30;;;27.80;59.80;;;;;;6223286;23;20001;-73
2022/09/09 13:29:57;;;;;;;2.55;0.20;;;27.50;59.80;;;;;;6222876;23;20064;-72
2022/09/09 13:32:26;;;;;;;1.80;0.22;;;27.40;60.10;;;;;;6222135;23;20008;-72
2022/09/09 13:34:57;;;;;;;2.30;0.30;;;27.70;60.10;;;;;;6223093;23;20008;-72
2022/09/09 13:37:33;;;;;;;2.15;0.30;;;28.50;59.50;;;;;;6222479;23;20012;-73
2022/09/09 13:39:59;;;;;;;1.20;0.28;;;29.70;58.40;;;;;;6223058;23;20312;-73
2022/09/09 13:42:31;;;;;;;1.27;0.30;;;31.70;55.50;;;;;;6222501;23;20001;-72
2022/09/09 13:44:59;;;;;;;1.58;0.28;;;32.70;54.30;;;;;;6223022;23;20001;-72
2022/09/09 13:47:32;;;;;;;1.02;0.13;;;31.60;54.10;;;;;;6222531;23;20085;-74
2022/09/09 13:49:58;;;;;;;3.10;0.30;;;30.10;55.60;;;;;;6196810;23;20012;-71
2022/09/09 13:52:24;;;;;;;1.85;0.28;;;28.70;56.00;;;;;;6222496;23;20005;-72
2022/09/09 13:54:51;;;;;;;1.23;0.30;;;27.10;58.20;;;;;;6223175;23;20008;-72
2022/09/09 13:57:25;;;;;;;2.67;0.28;;;26.50;58.70;;;;;;6197088;23;20001;-72
2022/09/09 13:59:54;;;;;;;2.78;0.35;;;26.00;60.50;;;;;;6223094;23;20317;-71
2022/09/09 14:02:22;;;;;;;2.88;0.20;;;25.90;61.40;;;;;;6222628;23;20047;-73
2022/09/09 14:04:50;;;;;;;;;;;26.20;62.90;;;;;;6223331;23;19997;-73
2022/09/09 14:07:18;;;;;;;1.40;0.28;;;28.60;58.80;;;;;;6223121;23;19900;-71
2022/09/09 14:09:45;;;;;;;1.58;0.20;;;30.60;55.00;;;;;;6222653;23;19995;-71
2022/09/09 14:12:15;;;;;;;0.45;0.10;;;31.80;53.90;;;;;;6222974;23;20031;-72
2022/09/09 14:14:41;;;;;;;1.30;0.30;;;31.00;54.60;;;;;;6222207;23;20070;-73
2022/09/09 14:17:08;;;;;;;2.70;0.52;;;30.30;55.30;;;;;;6223010;23;20001;-72
2022/09/09 14:19:33;;;;;;;3.72;0.28;;;30.70;54.60;;;;;;6222119;23;20000;-72
2022/09/09 14:22:00;;;;;;;2.22;0.43;;;30.70;53.70;;;;;;6222919;23;20056;-72
2022/09/09 14:24:27;;;;;;;1.88;0.38;;;30.50;54.30;;;;;;6222692;23;20031;-73
2022/09/09 14:26:53;;;;;;;1.52;0.30;;;31.00;53.30;;;;;;6222488;23;20000;-71
2022/09/09 14:29:19;;;;;;;1.50;0.20;;;31.80;52.90;;;;;;6222573;23;19988;-72
2022/09/09 14:31:45;;;;;;;3.00;0.30;;;32.40;51.60;;;;;;6222515;23;20070;-71
2022/09/09 14:34:11;;;;;;;1.75;0.20;;;30.80;53.10;;;;;;6222691;23;20004;-73
2022/09/09 14:36:37;;;;;;;2.75;0.32;;;29.40;54.20;;;;;;6221745;23;19989;-73
2022/09/09 14:39:04;;;;;;;1.80;0.50;;;28.30;56.00;;;;;;6222885;23;20210;-72
2022/09/09 14:41:30;;;;;;;1.13;0.10;;;29.00;56.10;;;;;;6222471;23;20001;-72
2022/09/09 14:43:56;;;;;;;1.65;0.22;;;28.90;56.00;;;;;;6223132;23;20060;-73
2022/09/09 14:46:23;;;;;;;1.30;0.20;;;28.10;56.30;;;;;;6222414;23;20044;-73
2022/09/09 14:48:49;;;;;;;4.75;0.32;;;27.40;57.10;;;;;;6223003;23;20021;-72
2022/09/09 14:51:22;;;;;;;1.08;0.20;;;26.90;57.70;;;;;;6221917;23;20032;-71
2022/09/09 14:53:53;;;;;;;2.28;0.25;;;26.80;58.00;;;;;;6222282;23;20025;-73
2022/09/09 14:56:21;;;;;;;1.42;0.20;;;26.70;58.40;;;;;;6221832;23;20050;-74
2022/09/09 14:58:48;;;;;;;1.42;0.30;;;26.70;58.20;;;;;;6196106;23;20294;-73
2022/09/09 15:01:16;;;;;;;2.00;0.20;;;27.40;58.00;;;;;;6222775;23;20096;-74
2022/09/09 15:03:43;;;;;;;;;;;29.30;55.10;;;;;;6222858;23;20230;-71
2022/09/09 15:06:11;;;;;;;1.17;0.20;;;29.90;53.60;;;;;;6196545;23;19922;-72
2022/09/09 15:08:39;;;;;;;2.65;0.20;;;31.50;51.70;;;;;;6222361;23;19988;-73
2022/09/09 15:11:09;;;;;;;1.33;0.10;;;31.10;51.70;;;;;;6222655;23;20321;-73
2022/09/09 15:13:39;;;;;;;2.08;0.40;;;30.80;51.50;;;;;;6222143;23;20015;-71
2022/09/09 15:16:27;;;;;;;0.63;0.10;;;30.90;51.40;;;;;;6222622;23;20008;-73
2022/09/09 15:18:55;;;;;;;1.83;0.22;;;32.10;50.70;;;;;;6196405;23;20004;-73
2022/09/09 15:21:24;;;;;;;2.75;0.30;;;30.90;51.10;;;;;;6222629;23;20007;-72
2022/09/09 15:23:51;;;;;;;0.88;0.20;;;29.20;53.00;;;;;;6223029;23;20051;-73
2022/09/09 15:26:17;;;;;;;1.63;0.30;;;27.60;55.10;;;;;;6222510;23;20048;-72
2022/09/09 15:28:47;;;;;;;1.58;0.15;;;26.70;56.70;;;;;;6221929;23;20024;-72
2022/09/09 15:31:24;;;;;;;1.52;0.20;;;26.00;57.80;;;;;;6222327;23;20016;-73
2022/09/09 15:34:05;;;;;;;2.93;0.30;;;25.70;58.60;;;;;;6222129;23;20459;-74
2022/09/09 15:36:33;;;;;;;2.20;0.40;;;26.20;58.70;;;;;;6195676;23;19997;-72
2022/09/09 15:39:00;;;;;;;1.58;0.28;;;27.50;56.50;;;;;;6223711;23;20048;-72
2022/09/09 15:41:27;;;;;;;1.27;0.20;;;27.00;56.80;;;;;;6223101;23;20004;-74
2022/09/09 15:43:56;;;;;;;2.10;0.28;;;26.50;57.50;;;;;;6224010;23;20005;-73
2022/09/09 15:46:43;;;;;;;2.13;0.47;;;25.70;58.70;;;;;;6223090;23;20194;-77
2022/09/09 15:49:14;;;;;;;3.65;0.52;;;25.30;60.10;;;;;;6199010;23;20279;-71
2022/09/09 15:51:42;;;;;;;2.58;0.40;;;24.70;60.70;;;;;;6223784;23;20000;-70
2022/09/09 15:54:13;;;;;;;1.73;0.32;;;24.30;62.10;;;;;;6225568;23;20022;-69
2022/09/09 15:56:39;;;;;;;3.08;0.32;;;24.00;63.00;;;;;;6224843;23;20024;-69
2022/09/09 15:59:05;;;;;;;1.85;0.40;;;23.90;63.40;;;;;;6225908;23;20031;-70
2022/09/09 16:01:31;;;;;;;2.83;0.25;;;23.70;63.60;;;;;;6225439;23;19992;-71
2022/09/09 16:03:58;;;;;;;2.00;0.50;;;23.60;64.20;;;;;;6225646;23;20063;-70
2022/09/09 16:06:28;;;;;;;2.03;0.60;;;23.40;64.00;;;;;;6225062;23;20005;-70
2022/09/09 16:08:56;;;;;;;2.03;0.28;;;23.20;63.80;;;;;;6225645;23;20305;-70
2022/09/09 16:11:27;;;;;;;1.85;0.30;;;23.00;64.20;;;;;;6225338;23;20001;-70
2022/09/09 16:13:54;;;;;;;1.90;0.30;;;22.90;64.40;;;;;;6198692;23;20195;-72
2022/09/09 16:16:24;;;;;;;2.33;0.50;;;22.70;64.30;;;;;;6225834;23;20001;-71
2022/09/09 16:18:55;;;;;;;3.03;0.45;;;22.60;64.50;;;;;;6199088;23;19996;-70
2022/09/09 16:21:28;;;;;;;2.17;0.40;;;22.50;64.70;;;;;;6224540;23;20000;-70
2022/09/09 16:23:55;;;;;;;4.32;0.52;;;22.50;65.10;;;;;;6225299;23;20005;-70
2022/09/09 16:26:22;;;;;;;3.97;1.42;;;22.50;65.30;;;;;;6224768;23;20000;-72
2022/09/09 16:28:48;;;;;;;4.10;1.27;;;22.40;65.60;;;;;;6225047;23;20001;-70
2022/09/09 16:31:19;;;;;;;3.22;0.50;;;22.20;66.30;;;;;;6193447;23;20195;-69
2022/09/09 16:33:46;;;;;;;1.98;0.55;;;22.20;66.90;;;;;;6194587;23;20009;-70
2022/09/09 16:36:20;;;;;;;4.07;1.13;;;22.10;67.20;;;;;;6195154;23;20005;-74
2022/09/09 16:38:46;;;;;;;2.33;0.75;;;22.10;67.90;;;;;;6194705;23;20001;-77
2022/09/09 16:41:13;;;;;;;2.80;0.75;;;22.10;68.30;;;;;;6195247;23;20337;-72
2022/09/09 16:43:41;;;;;;;1.90;0.40;;;22.00;68.60;;;;;;6194481;23;20005;-74
2022/09/09 16:46:19;;;;;;;2.53;0.30;;;22.00;69.70;;;;;;6193664;23;20016;-73
2022/09/09 16:48:45;;;;;;;1.40;0.35;;;21.90;70.50;;;;;;6194249;23;20568;-72
2022/09/09 16:51:23;;;;;;;1.13;0.30;;;21.60;71.20;;;;;;6195094;23;20001;-72
2022/09/09 16:53:50;;;;;;;2.38;0.20;;;21.40;71.40;;;;;;6194498;23;20295;-72
2022/09/09 16:56:26;;;;;;;0.77;0.20;;;21.20;71.40;;;;;;6194321;23;20001;-75
2022/09/09 16:59:04;;;;;;;1.25;0.28;;;21.20;71.00;;;;;;6194687;23;20172;-72
2022/09/09 17:01:33;;;;;;;0.68;0.10;;;21.00;73.00;;;;;;6194224;23;20001;-74
2022/09/09 17:04:01;;;;;;;2.95;0.20;;;20.70;71.90;;;;;;6193645;23;20186;-73
2022/09/09 17:06:32;;;;;;;1.00;0.10;;;20.50;72.40;;;;;;6194430;23;20001;-72
2022/09/09 17:09:01;;;;;;;0.52;0.10;;;20.20;72.80;;;;;;6195262;23;20294;-74
2022/09/09 17:11:28;;;;;;;0.55;0.10;;;20.10;73.20;;;;;;6193843;23;19989;-71
2022/09/09 17:13:55;;;;;;;0.93;0.17;;;19.90;74.00;;;;;;6194527;23;20077;-73
2022/09/09 17:16:23;;;;;;;1.13;0.13;;;19.80;74.80;;;;;;6194435;23;20012;-73
2022/09/09 17:18:50;;;;;;;2.10;0.20;;;19.80;75.20;;;;;;6194311;23;20020;-73
2022/09/09 17:21:20;;;;;;;0.95;0.15;;;19.70;75.50;;;;;;6193378;23;20178;-73
2022/09/09 17:23:46;;;;;;;0.98;0.20;;;19.60;76.00;;;;;;6194221;23;20058;-74
2022/09/09 17:26:15;;;;;;;1.00;0.20;;;19.50;76.70;;;;;;6193134;23;20012;-75
2022/09/09 17:28:41;;;;;;;;;;;19.40;77.20;;;;;;6194859;23;20014;-76
2022/09/09 17:31:09;;;;;;;1.17;0.30;;;19.20;77.90;;;;;;6216383;23;19908;-77
2022/09/09 17:33:37;;;;;;;1.23;0.33;;;19.20;78.40;;;;;;6198203;23;20291;-75
2022/09/09 17:36:09;;;;;;;1.88;0.40;;;19.10;78.70;;;;;;6224942;23;20402;-74
2022/09/09 17:38:35;;;;;;;1.85;0.30;;;19.00;79.30;;;;;;6224235;23;20001;-73
2022/09/09 17:41:31;;;;;;;0.85;0.25;;;18.90;79.60;;;;;;6225198;23;20034;-77
2022/09/09 17:43:58;;;;;;;1.55;0.30;;;18.90;80.10;;;;;;6225026;23;20023;-73
2022/09/09 17:46:29;;;;;;;2.33;0.60;;;18.80;80.80;;;;;;6223741;23;19989;-75
2022/09/09 17:48:58;;;;;;;2.00;0.85;;;18.70;81.00;;;;;;6224002;23;20000;-75
2022/09/09 17:51:29;;;;;;;2.05;0.60;;;18.70;81.60;;;;;;6223704;23;19985;-78
2022/09/09 17:54:07;;;;;;;2.15;0.57;;;18.70;81.60;;;;;;6197417;23;20035;-77
2022/09/09 17:56:36;;;;;;;;;;;18.80;81.90;;;;;;6196380;23;20511;-75
2022/09/09 17:59:05;;;;;;;2.53;0.35;;;18.80;82.40;;;;;;6222360;23;19942;-74
2022/09/09 18:01:33;;;;;;;2.72;0.50;;;18.80;82.60;;;;;;6222925;23;19999;-76
2022/09/09 18:04:01;;;;;;;1.98;0.60;;;18.80;82.90;;;;;;6224256;23;20008;-75
2022/09/09 18:06:31;;;;;;;2.42;0.40;;;18.70;83.10;;;;;;6224792;23;20059;-75
2022/09/09 18:09:07;;;;;;;2.22;0.43;;;18.60;83.70;;;;;;6225065;23;20001;-77
2022/09/09 18:11:41;;;;;;;1.35;0.35;;;18.60;84.00;;;;;;6196948;23;20008;-74
2022/09/09 18:14:09;;;;;;;2.08;0.40;;;18.60;84.40;;;;;;6224219;23;20008;-75
2022/09/09 18:16:36;;;;;;;1.88;0.40;;;18.60;84.30;;;;;;6224099;23;20024;-73
2022/09/09 18:19:08;;;;;;;2.50;0.45;;;18.60;84.60;;;;;;6224586;23;19993;-74
2022/09/09 18:21:34;;;;;;;1.13;0.40;;;18.70;84.40;;;;;;6224633;23;20182;-73
2022/09/09 18:24:02;;;;;;;3.75;0.40;;;18.70;84.50;;;;;;6224571;23;20051;-73
2022/09/09 18:26:28;;;;;;;1.95;0.35;;;18.60;84.80;;;;;;6224224;23;20001;-75
2022/09/09 18:28:56;;;;;;;1.58;0.30;;;18.70;85.00;;;;;;6224218;23;19992;-74
2022/09/09 18:31:24;;;;;;;1.77;0.68;;;18.60;85.30;;;;;;6224671;23;20036;-75
2022/09/09 18:33:52;;;;;;;2.33;0.32;;;18.60;85.30;;;;;;6223820;23;20070;-75
2022/09/09 18:36:23;;;;;;;1.63;0.40;;;18.60;85.30;;;;;;6198210;23;20331;-74
2022/09/09 18:38:51;;;;;;;3.47;0.57;;;18.60;85.80;;;;;;6196869;23;20004;-75
2022/09/09 18:41:23;;;;;;;2.20;0.65;;;18.60;86.30;;;;;;6224017;23;19992;-74
2022/09/09 18:43:51;;;;;;;3.72;1.52;;;18.60;86.70;;;;;;6223318;23;20005;-75
2022/09/09 18:46:18;;;;;;;2.40;1.15;;;18.50;86.20;;;;;;6224209;23;20194;-75
2022/09/09 18:48:45;;;;;;;2.83;0.95;;;18.50;86.10;;;;;;6197489;23;19999;-73
2022/09/09 18:51:13;;;;;;;2.22;0.57;;;18.50;86.20;;;;;;6224057;23;20032;-74
2022/09/09 18:53:43;;;;;;;4.85;0.60;;;18.50;86.10;;;;;;6223870;23;20020;-75
2022/09/09 18:56:11;;;;;;;2.00;0.60;;;18.50;86.40;;;;;;6224066;23;20001;-73
2022/09/09 18:58:37;;;;;;;3.50;0.77;;;18.50;86.70;;;;;;6197182;23;20004;-74
2022/09/09 19:01:07;;;;;;;2.90;1.30;;;18.40;86.80;;;;;;6224316;23;20047;-75
2022/09/09 19:03:34;;;;;;;3.42;0.85;;;18.40;87.30;;;;;;6224239;23;20004;-73
2022/09/09 19:06:06;;;;;;;2.83;0.73;;;18.40;86.90;;;;;;6223990;23;20020;-74
2022/09/09 19:08:36;;;;;;;2.13;0.63;;;18.30;87.30;;;;;;6224200;23;20004;-74
2022/09/09 19:11:03;;;;;;;3.92;0.70;;;18.40;87.30;;;;;;6223845;23;20283;-75
2022/09/09 19:13:31;;;;;;;3.65;1.45;;;18.30;87.50;;;;;;6197354;23;20048;-74
2022/09/09 19:16:06;;;;;;;6.28;4.15;;;18.20;87.70;;;;;;6223962;23;19985;-75
2022/09/09 19:18:33;;;;;;;3.28;1.92;;;18.10;88.30;;;;;;6224332;23;20007;-75
2022/09/09 19:21:17;;;;;;;3.47;1.10;;;18.10;88.80;;;;;;6223504;23;20147;-75
2022/09/09 19:23:45;;;;;;;6.43;2.50;;;18.00;89.30;;;;;;6223843;23;20245;-75
2022/09/09 19:26:15;;;;;;;7.20;3.70;;;17.90;89.90;;;;;;6225137;23;20000;-74
2022/09/09 19:28:44;;;;;;;6.03;2.90;;;17.90;90.00;;;;;;6224469;23;20012;-74
2022/09/09 19:31:10;;;;;;;4.78;3.40;;;17.90;90.10;;;;;;6224385;23;20016;-73
2022/09/09 19:33:37;;;;;;;4.57;1.95;;;17.80;90.20;;;;;;6224350;23;20013;-74
2022/09/09 19:36:06;;;;;;;1.80;0.52;;;17.80;90.30;;;;;;6224569;23;20050;-73
2022/09/09 19:38:33;;;;;;;6.22;0.90;;;17.70;90.40;;;;;;6224120;23;20208;-74
2022/09/09 19:41:06;;;;;;;2.42;0.82;;;17.80;90.50;;;;;;6224832;23;20068;-74
2022/09/09 19:43:32;;;;;;;3.22;0.70;;;17.80;90.50;;;;;;6224921;23;20027;-75
2022/09/09 19:46:06;;;;;;;3.42;0.90;;;17.70;90.60;;;;;;6223886;23;20001;-74
2022/09/09 19:48:35;;;;;;;3.90;0.98;;;17.70;90.70;;;;;;6199601;23;20164;-75
2022/09/09 19:51:09;;;;;;;2.38;0.63;;;17.70;90.80;;;;;;6225561;23;20052;-74
2022/09/09 19:53:37;;;;;;;1.90;0.50;;;17.60;90.80;;;;;;6199082;23;20013;-73
2022/09/09 19:56:03;;;;;;;3.65;0.73;;;17.60;90.80;;;;;;6198946;23;19993;-75
2022/09/09 19:58:33;;;;;;;2.55;0.73;;;17.50;91.00;;;;;;6225515;23;20001;-74
2022/09/09 20:01:12;;;;;;;3.80;0.60;;;17.40;91.10;;;;;;6225551;22;20195;-72
2022/09/09 20:03:39;;;;;;;2.15;0.50;;;17.40;91.30;;;;;;6255409;23;20004;-75
2022/09/09 20:06:07;;;;;;;1.30;0.32;;;17.40;91.10;;;;;;6254631;23;20000;-74
2022/09/09 20:08:35;;;;;;;2.03;0.40;;;17.50;91.00;;;;;;6253528;23;20000;-73
2022/09/09 20:11:02;;;;;;;2.83;0.90;;;17.40;91.20;;;;;;6254253;23;20000;-74
2022/09/09 20:13:29;;;;;;;2.63;0.47;;;17.40;91.20;;;;;;6255106;23;20060;-75
2022/09/09 20:16:03;;;;;;;1.05;0.40;;;17.30;91.30;;;;;;6254476;23;20004;-73
2022/09/09 20:18:31;;;;;;;3.45;0.70;;;17.40;91.30;;;;;;6254829;23;20000;-72
2022/09/09 20:21:04;;;;;;;2.17;0.40;;;17.40;91.30;;;;;;6253721;23;20027;-74
2022/09/09 20:23:30;;;;;;;1.60;0.30;;;17.40;91.30;;;;;;6255469;23;20051;-74
2022/09/09 20:26:01;;;;;;;2.33;0.70;;;17.20;91.30;;;;;;6255662;23;20282;-72
2022/09/09 20:28:28;;;;;;;1.50;0.50;;;17.10;91.80;;;;;;6229400;22;20213;-71
2022/09/09 20:30:54;;;;;;;1.70;0.40;;;17.00;91.80;;;;;;6227900;23;20003;-72
2022/09/09 20:33:20;;;;;;;3.25;0.50;;;17.10;92.00;;;;;;6255125;23;20059;-72
2022/09/09 20:35:47;;;;;;;2.45;0.60;;;17.00;91.90;;;;;;6253312;23;19996;-76
2022/09/09 20:38:13;;;;;;;2.45;0.57;;;17.00;92.10;;;;;;6254191;23;20024;-74
2022/09/09 20:40:41;;;;;;;4.85;0.80;;;16.90;92.30;;;;;;6254069;23;19992;-73
2022/09/09 20:43:11;;;;;;;2.90;0.70;;;17.00;92.20;;;;;;6254070;23;20004;-74
2022/09/09 20:45:56;;;;;;;2.58;0.45;;;16.90;92.40;;;;;;6253304;23;20193;-72
2022/09/09 20:48:41;;;;;;;1.63;0.40;;;16.90;92.40;;;;;;6253582;23;20228;-72
2022/09/09 20:51:28;;;;;;;2.85;0.63;;;17.00;92.30;;;;;;6255423;23;20108;-74
2022/09/09 20:54:07;;;;;;;2.55;0.60;;;17.10;92.20;;;;;;6254754;23;20015;-74
2022/09/09 20:56:38;;;;;;;1.55;0.40;;;17.10;92.30;;;;;;6229096;23;20294;-73
2022/09/09 20:59:04;;;;;;;3.05;0.35;;;17.00;92.20;;;;;;6228500;23;20186;-72
2022/09/09 21:01:30;;;;;;;3.47;0.50;;;17.00;92.40;;;;;;6255107;23;20066;-72
2022/09/09 21:03:56;;;;;;;3.85;0.60;;;16.90;92.60;;;;;;6254947;23;20290;-72
2022/09/09 21:06:21;;;;;;;3.67;0.50;;;16.90;92.70;;;;;;6255274;23;19991;-73
2022/09/09 21:08:48;;;;;;;2.17;0.40;;;16.80;92.70;;;;;;6254525;23;20000;-72
2022/09/09 21:11:14;;;;;;;4.75;0.40;;;16.90;92.70;;;;;;6255875;23;20004;-73
2022/09/09 21:13:40;;;;;;;3.28;0.40;;;16.80;92.70;;;;;;6255455;23;20012;-73
2022/09/09 21:16:09;;;;;;;2.40;0.50;;;16.80;92.80;;;;;;6255059;23;20305;-73
2022/09/09 21:18:36;;;;;;;2.10;0.30;;;16.80;92.80;;;;;;6255278;23;20102;-73
2022/09/09 21:21:02;;;;;;;2.55;0.45;;;16.80;92.90;;;;;;6254556;23;20008;-72
2022/09/09 21:23:28;;;;;;;2.13;0.43;;;16.70;93.00;;;;;;6254558;23;20008;-72
2022/09/09 21:25:55;;;;;;;2.55;0.40;;;16.60;93.20;;;;;;6255024;23;20000;-72
2022/09/09 21:28:21;;;;;;;1.75;0.60;;;16.50;93.40;;;;;;6255190;23;20305;-72
2022/09/09 21:30:49;;;;;;;2.58;0.65;;;16.40;93.70;;;;;;6254537;23;20321;-72
2022/09/09 21:33:17;;;;;;;2.05;0.47;;;16.30;93.90;;;;;;6254783;23;20008;-72
2022/09/09 21:35:43;;;;;;;3.63;0.77;;;16.20;94.30;;;;;;6254662;23;20004;-72
2022/09/09 21:38:17;;;;;;;2.88;0.50;;;16.10;94.60;;;;;;6255297;23;20000;-72
2022/09/09 21:40:44;;;;;;;3.45;0.70;;;16.10;94.60;;;;;;6254721;23;20024;-76
2022/09/09 21:43:12;;;;;;;3.22;0.40;;;16.10;94.60;;;;;;6255497;23;19992;-73
2022/09/09 21:45:42;;;;;;;5.13;0.90;;;16.10;94.80;;;;;;6254723;23;20004;-73
2022/09/09 21:48:11;;;;;;;3.90;0.52;;;16.00;94.90;;;;;;6255465;23;20007;-73